Elderton, Pennsylvania
Current Conditions -  °F | °C
As of 3:55 AM on Wednesday 26 Nov 2014 (Local Time) from KIDI Reporting Station
Scattered Clouds Scattered Clouds  
Wind Chill: 27°   Ceiling: Unl
Heat Index: 32°   Visibility: 10mi
Dew Point: 27°   Wind: 5mph
Humidity: 80%   Direction: NA
Pressure: 30.15"   Gusts: NA
Location:  40.7°N, 79.34°W
Report Text: KIDI 260855Z AUTO VRB04KT 10SM SCT110 M00/M03 A3015 RMK A01
Loading
Personal Weather Stations






























Interactive Weather Map New forecast layout! Learn more

10-Day Weather Forecast

Advertisements
Track Severe Weather on mobile